Abbeville, AL

8:31 PM CDT on July 29, 2015 (GMT -0500)
APRSWXNET | | Change Station
CLOSE
Current Station
Personal Weather Station
Location: Clopton, AL
Elevation: 364 ft
Nearby Weather Stations

Elev 364 ft 31.65 °N, 85.35 °W | Updated 29 minutes ago

Clear
Clear
82 °F
Feels Like 93 °F
N
0
Wind Variable Wind from NW
Gusts 1.0 mph

Today
High -- | Low -- °F
--% Chance of Precip.
Yesterday
High -- | Low -- °F
Precip. -- in
5:55 AM 7:39 PM
Waxing Gibbous, 97% visible
Pressure 29.96 in
Visibility 10.0 miles
Clouds Clear
Heat Index 93 °F
Dew Point 81 °F
Humidity 96%
Rainfall in
Snow Depth Not available.
UV 0 out of 12
Pollen 3.90 out of 12
Air Quality Not available.
Flu Activity Not available.
METAR KDHN 300053Z 29006KT 10SM CLR 28/24 A2998 RMK AO2 SLP146 T02830244

More Conditions Fewer Conditions

Pressure 29.96 in
Visibility 10.0 miles
Clouds Clear
Heat Index 93 °F
Dew Point 81 °F
Humidity 96%
Rainfall in
Snow Depth Not available.
UV 0 out of 12
Pollen 3.90 out of 12
Air Quality Not available.
Flu Activity Not available.
METAR KDHN 300053Z 29006KT 10SM CLR 28/24 A2998 RMK AO2 SLP146 T02830244

More Conditions Fewer Conditions

10-Day Weather Forecast

×

Almanac

Astronomy

Jul. 29, 2015 Rise Set
Actual Time
Civil Twilight
Nautical Twilight
Astronomical Twilight
Moon
Length of Visible Light
Length of Day
Tomorrow will be .
, % of the Moon is Illuminated

Today's Extremes

State Highs State Lows

Community

WunderPhotos

Upload Photos

1,842,248 photos uploaded!

WunderBlogs® & News

Nearby

Air Quality

  Air Quality AQ Index Pollutant
Not available.

Snow Depth

Station Depth Elevation

Earthquake Activity

City Distance Mag. Time & Date
Minimum magnitude displayed is 2.5.

Coastal Water Temperatures

Place Temperature

Stations

Nearby Weather Stations

Station Location Temp. Windchill Dew Point Humidity Wind Precip. Elev Updated Type